^^
Meteo Knjazevac Station Historical Data
Daily Summary for September 3, 2021 Units:  Both    English   Metric
Daily Weekly Monthly Yearly Custom
  High: Low: Average:
Temperature: 71.8 °F /  22.1 °C 34 °F /  1.1 °C 51.8 °F /  11 °C
Dew Point: 51.7 °F /  10.9 °C 31.4 °F /  -0.3 °C 42.6 °F /  5.9 °C
Humidity: 96% 49% 73%
Wind Speed: 6mph /  9.7km/h - 1.9mph /  3.1km/h
Wind Gust: 12mph /  19.3km/h - -
Wind- - SSW
Pressure: 30.31 in /  1026.3 hPa 30.21 in /  1022.9 hPa -
Precipitation: 0.00 in /  0 mm    
Historical Graphs
 
 
Tabular Data for September 3, 2021
Time Temperature Dew Point Pressure Wind Wind Speed Wind Gust Humidity Rainfall Rate (Hourly) solar Conditions
00:00 43.7 °F /  6.5 °C 39.2 °F /  4 °C 30.28in /  1025.3hPa SSE 1mph /  1.6km/h 3mph /  4.8km/h 84% 0.00in /  0mm 0 W/m2
00:10 43.5 °F /  6.4 °C 39 °F /  3.9 °C 30.28in /  1025.3hPa West 1mph /  1.6km/h 2mph /  3.2km/h 84% 0.00in /  0mm 0 W/m2
00:20 43.3 °F /  6.3 °C 38.8 °F /  3.8 °C 30.28in /  1025.3hPa WNW 1mph /  1.6km/h 4mph /  6.4km/h 84% 0.00in /  0mm 0 W/m2
00:30 43 °F /  6.1 °C 38.5 °F /  3.6 °C 30.28in /  1025.3hPa Calm   2mph /  3.2km/h 84% 0.00in /  0mm 0 W/m2
00:40 42.8 °F /  6 °C 38.3 °F /  3.5 °C 30.28in /  1025.3hPa Calm   2mph /  3.2km/h 84% 0.00in /  0mm 0 W/m2
00:50 42.4 °F /  5.8 °C 37.9 °F /  3.3 °C 30.28in /  1025.3hPa Calm   2mph /  3.2km/h 84% 0.00in /  0mm 0 W/m2
01:00 42.1 °F /  5.6 °C 37.6 °F /  3.1 °C 30.28in /  1025.3hPa NW 1mph /  1.6km/h 3mph /  4.8km/h 84% 0.00in /  0mm 0 W/m2
01:10 41.7 °F /  5.4 °C 37.5 °F /  3.1 °C 30.28in /  1025.3hPa West 1mph /  1.6km/h 4mph /  6.4km/h 85% 0.00in /  0mm 0 W/m2
01:20 41.5 °F /  5.3 °C 37.7 °F /  3.2 °C 30.28in /  1025.3hPa Calm   2mph /  3.2km/h 86% 0.00in /  0mm 0 W/m2
01:30 41 °F /  5 °C 36.5 °F /  2.5 °C 30.28in /  1025.3hPa Calm   1mph /  1.6km/h 84% 0.00in /  0mm 0 W/m2
01:40 40.5 °F /  4.7 °C 36 °F /  2.2 °C 30.28in /  1025.3hPa Calm   2mph /  3.2km/h 84% 0.00in /  0mm 0 W/m2
01:50 40.1 °F /  4.5 °C 36.2 °F /  2.3 °C 30.28in /  1025.3hPa NW 2mph /  3.2km/h 4mph /  6.4km/h 86% 0.00in /  0mm 0 W/m2
02:00 39.9 °F /  4.4 °C 36.1 °F /  2.3 °C 30.28in /  1025.3hPa NW 1mph /  1.6km/h 3mph /  4.8km/h 86% 0.00in /  0mm 0 W/m2
02:10 39.7 °F /  4.3 °C 35.9 °F /  2.2 °C 30.28in /  1025.3hPa Calm   2mph /  3.2km/h 86% 0.00in /  0mm 0 W/m2
02:20 39.6 °F /  4.2 °C 35.7 °F /  2.1 °C 30.28in /  1025.3hPa West 1mph /  1.6km/h 2mph /  3.2km/h 86% 0.00in /  0mm 0 W/m2
02:30 39 °F /  3.9 °C 35.2 °F /  1.8 °C 30.29in /  1025.6hPa Calm   2mph /  3.2km/h 86% 0.00in /  0mm 0 W/m2
02:40 38.8 °F /  3.8 °C 35.6 °F /  2 °C 30.28in /  1025.3hPa Calm   2mph /  3.2km/h 88% 0.00in /  0mm 0 W/m2
02:50 38.8 °F /  3.8 °C 35.9 °F /  2.2 °C 30.28in /  1025.3hPa North 1mph /  1.6km/h 3mph /  4.8km/h 89% 0.00in /  0mm 0 W/m2
03:00 38.8 °F /  3.8 °C 35.9 °F /  2.2 °C 30.28in /  1025.3hPa Calm   2mph /  3.2km/h 89% 0.00in /  0mm 0 W/m2
03:10 38.7 °F /  3.7 °C 35.4 °F /  1.9 °C 30.29in /  1025.6hPa Calm   2mph /  3.2km/h 88% 0.00in /  0mm 0 W/m2
03:20 38.5 °F /  3.6 °C 35.5 °F /  1.9 °C 30.28in /  1025.3hPa Calm   3mph /  4.8km/h 89% 0.00in /  0mm 0 W/m2
03:30 38.3 °F /  3.5 °C 35.1 °F /  1.7 °C 30.29in /  1025.6hPa Calm   2mph /  3.2km/h 88% 0.00in /  0mm 0 W/m2
03:40 37.8 °F /  3.2 °C 34.5 °F /  1.4 °C 30.28in /  1025.3hPa Calm   1mph /  1.6km/h 88% 0.00in /  0mm 0 W/m2
03:50 37.4 °F /  3 °C 34.2 °F /  1.2 °C 30.28in /  1025.3hPa Calm     88% 0.00in /  0mm 0 W/m2
04:00 37.2 °F /  2.9 °C 34 °F /  1.1 °C 30.28in /  1025.3hPa NE 1mph /  1.6km/h 2mph /  3.2km/h 88% 0.00in /  0mm 0 W/m2
04:10 36.9 °F /  2.7 °C 33.9 °F /  1.1 °C 30.28in /  1025.3hPa Calm   2mph /  3.2km/h 89% 0.00in /  0mm 0 W/m2
04:20 36.9 °F /  2.7 °C 33.9 °F /  1.1 °C 30.28in /  1025.3hPa Calm   1mph /  1.6km/h 89% 0.00in /  0mm 0 W/m2
04:30 36.7 °F /  2.6 °C 33.7 °F /  0.9 °C 30.28in /  1025.3hPa Calm   2mph /  3.2km/h 89% 0.00in /  0mm 0 W/m2
04:40 36.3 °F /  2.4 °C 33.4 °F /  0.8 °C 30.28in /  1025.3hPa Calm   2mph /  3.2km/h 89% 0.00in /  0mm 0 W/m2
04:50 36.1 °F /  2.3 °C 32.9 °F /  0.5 °C 30.28in /  1025.3hPa NW 2mph /  3.2km/h 3mph /  4.8km/h 88% 0.00in /  0mm 0 W/m2
05:00 35.8 °F /  2.1 °C 32.9 °F /  0.5 °C 30.28in /  1025.3hPa Calm   3mph /  4.8km/h 89% 0.00in /  0mm 0 W/m2
05:10 35.8 °F /  2.1 °C 32.9 °F /  0.5 °C 30.28in /  1025.3hPa Calm   2mph /  3.2km/h 89% 0.00in /  0mm 0 W/m2
05:20 35.4 °F /  1.9 °C 32.5 °F /  0.3 °C 30.28in /  1025.3hPa Calm   3mph /  4.8km/h 89% 0.00in /  0mm 0 W/m2
05:30 35.2 °F /  1.8 °C 32.3 °F /  0.2 °C 30.29in /  1025.6hPa WNW 1mph /  1.6km/h 3mph /  4.8km/h 89% 0.00in /  0mm 0 W/m2
05:40 35.1 °F /  1.7 °C 32.4 °F /  0.2 °C 30.28in /  1025.3hPa Calm   2mph /  3.2km/h 90% 0.00in /  0mm 0 W/m2
05:50 35.1 °F /  1.7 °C 32.4 °F /  0.2 °C 30.29in /  1025.6hPa NNW 1mph /  1.6km/h 2mph /  3.2km/h 90% 0.00in /  0mm 0 W/m2
06:00 34.7 °F /  1.5 °C 32.1 °F /  0.1 °C 30.29in /  1025.6hPa Calm   2mph /  3.2km/h 90% 0.00in /  0mm 0 W/m2
06:10 34.5 °F /  1.4 °C 31.9 °F /  -0.1 °C 30.29in /  1025.6hPa NW 1mph /  1.6km/h 2mph /  3.2km/h 90% 0.00in /  0mm 0 W/m2
06:20 34.3 °F /  1.3 °C 31.7 °F /  -0.2 °C 30.29in /  1025.6hPa NW 1mph /  1.6km/h 2mph /  3.2km/h 90% 0.00in /  0mm 0 W/m2
06:30 34.5 °F /  1.4 °C 32.7 °F /  0.4 °C 30.30in /  1026hPa Calm   3mph /  4.8km/h 93% 0.00in /  0mm 4 W/m2
06:40 34.7 °F /  1.5 °C 32.9 °F /  0.5 °C 30.30in /  1026hPa Calm   2mph /  3.2km/h 93% 0.00in /  0mm 10 W/m2
06:50 34.5 °F /  1.4 °C 31.9 °F /  -0.1 °C 30.30in /  1026hPa Calm   2mph /  3.2km/h 90% 0.00in /  0mm 19 W/m2
07:00 34.2 °F /  1.2 °C 31.5 °F /  -0.3 °C 30.30in /  1026hPa Calm   2mph /  3.2km/h 90% 0.00in /  0mm 29 W/m2
07:10 34 °F /  1.1 °C 31.4 °F /  -0.3 °C 30.30in /  1026hPa NW 1mph /  1.6km/h 2mph /  3.2km/h 90% 0.00in /  0mm 37 W/m2
07:20 34 °F /  1.1 °C 31.6 °F /  -0.2 °C 30.30in /  1026hPa WNW 2mph /  3.2km/h 4mph /  6.4km/h 91% 0.00in /  0mm 80 W/m2
07:30 34 °F /  1.1 °C 31.6 °F /  -0.2 °C 30.31in /  1026.3hPa Calm   2mph /  3.2km/h 91% 0.00in /  0mm 103 W/m2
07:40 34.2 °F /  1.2 °C 32.3 °F /  0.2 °C 30.31in /  1026.3hPa WNW 1mph /  1.6km/h 2mph /  3.2km/h 93% 0.00in /  0mm 132 W/m2
07:50 34.5 °F /  1.4 °C 33 °F /  0.6 °C 30.30in /  1026hPa Calm   2mph /  3.2km/h 94% 0.00in /  0mm 157 W/m2
08:00 35.2 °F /  1.8 °C 34 °F /  1.1 °C 30.31in /  1026.3hPa Calm   2mph /  3.2km/h 95% 0.00in /  0mm 187 W/m2
08:10 35.8 °F /  2.1 °C 34.5 °F /  1.4 °C 30.31in /  1026.3hPa Calm   2mph /  3.2km/h 95% 0.00in /  0mm 79 W/m2
08:20 36.7 °F /  2.6 °C 35.7 °F /  2.1 °C 30.31in /  1026.3hPa Calm   2mph /  3.2km/h 96% 0.00in /  0mm 179 W/m2
08:30 38.5 °F /  3.6 °C 37.5 °F /  3.1 °C 30.31in /  1026.3hPa WSW 1mph /  1.6km/h 3mph /  4.8km/h 96% 0.00in /  0mm 275 W/m2
08:40 40.5 °F /  4.7 °C 38.9 °F /  3.8 °C 30.31in /  1026.3hPa SW 1mph /  1.6km/h 2mph /  3.2km/h 94% 0.00in /  0mm 309 W/m2
08:50 42.3 °F /  5.7 °C 40.4 °F /  4.7 °C 30.31in /  1026.3hPa WSW 1mph /  1.6km/h 2mph /  3.2km/h 93% 0.00in /  0mm 328 W/m2
09:00 44.1 °F /  6.7 °C 41.4 °F /  5.2 °C 30.31in /  1026.3hPa South 2mph /  3.2km/h 3mph /  4.8km/h 90% 0.00in /  0mm 368 W/m2
09:10 45.5 °F /  7.5 °C 41.6 °F /  5.3 °C 30.31in /  1026.3hPa ENE 3mph /  4.8km/h 10mph /  16.1km/h 86% 0.00in /  0mm 400 W/m2
09:20 47 °F /  8.3 °C 42.7 °F /  5.9 °C 30.31in /  1026.3hPa NE 3mph /  4.8km/h 10mph /  16.1km/h 85% 0.00in /  0mm 425 W/m2
09:30 48.4 °F /  9.1 °C 43.5 °F /  6.4 °C 30.31in /  1026.3hPa NNE 2mph /  3.2km/h 9mph /  14.5km/h 83% 0.00in /  0mm 450 W/m2
09:40 49.5 °F /  9.7 °C 43.9 °F /  6.6 °C 30.31in /  1026.3hPa NE 5mph /  8km/h 8mph /  12.9km/h 81% 0.00in /  0mm 473 W/m2
09:50 50.5 °F /  10.3 °C 44.3 °F /  6.8 °C 30.31in /  1026.3hPa NNE 3mph /  4.8km/h 8mph /  12.9km/h 79% 0.00in /  0mm 485 W/m2
10:00 51.6 °F /  10.9 °C 45 °F /  7.2 °C 30.31in /  1026.3hPa NNW 1mph /  1.6km/h 5mph /  8km/h 78% 0.00in /  0mm 99 W/m2
10:10 52.5 °F /  11.4 °C 45.5 °F /  7.5 °C 30.31in /  1026.3hPa NE 3mph /  4.8km/h 7mph /  11.3km/h 77% 0.00in /  0mm 536 W/m2
10:20 53.4 °F /  11.9 °C 45.7 °F /  7.6 °C 30.31in /  1026.3hPa NNE 1mph /  1.6km/h 7mph /  11.3km/h 75% 0.00in /  0mm 555 W/m2
10:30 54.7 °F /  12.6 °C 46.2 °F /  7.9 °C 30.30in /  1026hPa NNE 2mph /  3.2km/h 7mph /  11.3km/h 73% 0.00in /  0mm 572 W/m2
10:40 55.8 °F /  13.2 °C 46.9 °F /  8.3 °C 30.30in /  1026hPa North 2mph /  3.2km/h 6mph /  9.7km/h 72% 0.00in /  0mm 588 W/m2
10:50 56.8 °F /  13.8 °C 46.8 °F /  8.2 °C 30.30in /  1026hPa NNE 1mph /  1.6km/h 6mph /  9.7km/h 69% 0.00in /  0mm 603 W/m2
11:00 57.9 °F /  14.4 °C 47.4 °F /  8.6 °C 30.30in /  1026hPa NE 5mph /  8km/h 6mph /  9.7km/h 68% 0.00in /  0mm 616 W/m2
11:10 58.8 °F /  14.9 °C 47.9 °F /  8.8 °C 30.30in /  1026hPa NE 1mph /  1.6km/h 8mph /  12.9km/h 67% 0.00in /  0mm 628 W/m2
11:20 59.9 °F /  15.5 °C 48.1 °F /  8.9 °C 30.29in /  1025.6hPa NNE 3mph /  4.8km/h 8mph /  12.9km/h 65% 0.00in /  0mm 638 W/m2
11:30 61.2 °F /  16.2 °C 48.9 °F /  9.4 °C 30.28in /  1025.3hPa NNE 3mph /  4.8km/h 8mph /  12.9km/h 64% 0.00in /  0mm 646 W/m2
11:40 61.9 °F /  16.6 °C 49.2 °F /  9.6 °C 30.28in /  1025.3hPa NE 3mph /  4.8km/h 8mph /  12.9km/h 63% 0.00in /  0mm 316 W/m2
11:50 63 °F /  17.2 °C 49.8 °F /  9.9 °C 30.28in /  1025.3hPa NE 5mph /  8km/h 10mph /  16.1km/h 62% 0.00in /  0mm 176 W/m2
12:00 63.9 °F /  17.7 °C 49.7 °F /  9.8 °C 30.27in /  1024.9hPa NE 3mph /  4.8km/h 8mph /  12.9km/h 60% 0.00in /  0mm 619 W/m2
12:10 64.8 °F /  18.2 °C 49.6 °F /  9.8 °C 30.27in /  1024.9hPa NE 3mph /  4.8km/h 11mph /  17.7km/h 58% 0.00in /  0mm 664 W/m2
12:20 65.5 °F /  18.6 °C 50.3 °F /  10.2 °C 30.26in /  1024.6hPa North 3mph /  4.8km/h 7mph /  11.3km/h 58% 0.00in /  0mm 665 W/m2
12:30 66.4 °F /  19.1 °C 51.2 °F /  10.7 °C 30.26in /  1024.6hPa NNE 5mph /  8km/h 8mph /  12.9km/h 58% 0.00in /  0mm 663 W/m2
12:40 67.3 °F /  19.6 °C 50.6 °F /  10.3 °C 30.25in /  1024.3hPa NE 1mph /  1.6km/h 12mph /  19.3km/h 55% 0.00in /  0mm 661 W/m2
12:50 67.9 °F /  19.9 °C 51.1 °F /  10.6 °C 30.25in /  1024.3hPa NNE 6mph /  9.7km/h 10mph /  16.1km/h 55% 0.00in /  0mm 656 W/m2
13:00 68.7 °F /  20.4 °C 51.4 °F /  10.8 °C 30.25in /  1024.3hPa North 3mph /  4.8km/h 8mph /  12.9km/h 54% 0.00in /  0mm 650 W/m2
13:10 69.3 °F /  20.7 °C 51.4 °F /  10.8 °C 30.24in /  1023.9hPa North 6mph /  9.7km/h 10mph /  16.1km/h 53% 0.00in /  0mm 642 W/m2
13:20 69.6 °F /  20.9 °C 51.2 °F /  10.7 °C 30.24in /  1023.9hPa North 2mph /  3.2km/h 9mph /  14.5km/h 52% 0.00in /  0mm 633 W/m2
13:30 70.2 °F /  21.2 °C 51.7 °F /  10.9 °C 30.24in /  1023.9hPa NNE 6mph /  9.7km/h 12mph /  19.3km/h 52% 0.00in /  0mm 614 W/m2
13:40 70.5 °F /  21.4 °C 51 °F /  10.6 °C 30.23in /  1023.6hPa North 6mph /  9.7km/h 11mph /  17.7km/h 50% 0.00in /  0mm 610 W/m2
13:50 70.7 °F /  21.5 °C 51.1 °F /  10.6 °C 30.23in /  1023.6hPa NNE 5mph /  8km/h 10mph /  16.1km/h 50% 0.00in /  0mm 597 W/m2
14:00 71.1 °F /  21.7 °C 51.5 °F /  10.8 °C 30.22in /  1023.2hPa North 5mph /  8km/h 11mph /  17.7km/h 50% 0.00in /  0mm 581 W/m2
14:10 71.2 °F /  21.8 °C 51.1 °F /  10.6 °C 30.22in /  1023.2hPa North 2mph /  3.2km/h 12mph /  19.3km/h 49% 0.00in /  0mm 565 W/m2
14:20 71.1 °F /  21.7 °C 50.9 °F /  10.5 °C 30.22in /  1023.2hPa North 3mph /  4.8km/h 12mph /  19.3km/h 49% 0.00in /  0mm 547 W/m2
14:30 71.2 °F /  21.8 °C 51.1 °F /  10.6 °C 30.22in /  1023.2hPa North 6mph /  9.7km/h 12mph /  19.3km/h 49% 0.00in /  0mm 527 W/m2
14:40 71.4 °F /  21.9 °C 51.3 °F /  10.7 °C 30.22in /  1023.2hPa North 2mph /  3.2km/h 10mph /  16.1km/h 49% 0.00in /  0mm 507 W/m2
14:50 71.6 °F /  22 °C 51.4 °F /  10.8 °C 30.22in /  1023.2hPa North 3mph /  4.8km/h 9mph /  14.5km/h 49% 0.00in /  0mm 485 W/m2
15:00 71.8 °F /  22.1 °C 51.6 °F /  10.9 °C 30.21in /  1022.9hPa North 6mph /  9.7km/h 10mph /  16.1km/h 49% 0.00in /  0mm 462 W/m2
15:10 71.8 °F /  22.1 °C 51.6 °F /  10.9 °C 30.22in /  1023.2hPa NNE 2mph /  3.2km/h 11mph /  17.7km/h 49% 0.00in /  0mm 438 W/m2
15:20 71.8 °F /  22.1 °C 51.6 °F /  10.9 °C 30.21in /  1022.9hPa North 5mph /  8km/h 11mph /  17.7km/h 49% 0.00in /  0mm 414 W/m2
15:30 71.6 °F /  22 °C 51.4 °F /  10.8 °C 30.21in /  1022.9hPa North 3mph /  4.8km/h 11mph /  17.7km/h 49% 0.00in /  0mm 388 W/m2
15:40 71.4 °F /  21.9 °C 51.3 °F /  10.7 °C 30.21in /  1022.9hPa NNE 5mph /  8km/h 10mph /  16.1km/h 49% 0.00in /  0mm 362 W/m2
15:50 71.4 °F /  21.9 °C 51.3 °F /  10.7 °C 30.21in /  1022.9hPa North 6mph /  9.7km/h 12mph /  19.3km/h 49% 0.00in /  0mm 335 W/m2
16:00 71.1 °F /  21.7 °C 50.9 °F /  10.5 °C 30.21in /  1022.9hPa North 6mph /  9.7km/h 12mph /  19.3km/h 49% 0.00in /  0mm 307 W/m2
16:10 70.7 °F /  21.5 °C 50.6 °F /  10.3 °C 30.21in /  1022.9hPa North 5mph /  8km/h 11mph /  17.7km/h 49% 0.00in /  0mm 279 W/m2
16:20 70.3 °F /  21.3 °C 50.3 °F /  10.2 °C 30.21in /  1022.9hPa North 5mph /  8km/h 12mph /  19.3km/h 49% 0.00in /  0mm 251 W/m2
16:30 70 °F /  21.1 °C 49.9 °F /  9.9 °C 30.21in /  1022.9hPa North 3mph /  4.8km/h 12mph /  19.3km/h 49% 0.00in /  0mm 222 W/m2
16:40 69.6 °F /  20.9 °C 50.1 °F /  10.1 °C 30.21in /  1022.9hPa North 5mph /  8km/h 9mph /  14.5km/h 50% 0.00in /  0mm 194 W/m2
16:50 69.1 °F /  20.6 °C 49.7 °F /  9.8 °C 30.21in /  1022.9hPa NNW 5mph /  8km/h 9mph /  14.5km/h 50% 0.00in /  0mm 163 W/m2
17:00 68.5 °F /  20.3 °C 49.2 °F /  9.6 °C 30.21in /  1022.9hPa NNW 5mph /  8km/h 8mph /  12.9km/h 50% 0.00in /  0mm 132 W/m2
17:10 68.2 °F /  20.1 °C 49.9 °F /  9.9 °C 30.21in /  1022.9hPa North 6mph /  9.7km/h 10mph /  16.1km/h 52% 0.00in /  0mm 105 W/m2
17:20 67.8 °F /  19.9 °C 49.5 °F /  9.7 °C 30.21in /  1022.9hPa North 6mph /  9.7km/h 9mph /  14.5km/h 52% 0.00in /  0mm 80 W/m2
17:30 67.3 °F /  19.6 °C 49.6 °F /  9.8 °C 30.21in /  1022.9hPa North 5mph /  8km/h 10mph /  16.1km/h 53% 0.00in /  0mm 57 W/m2
17:40 66.7 °F /  19.3 °C 49.1 °F /  9.5 °C 30.21in /  1022.9hPa North 5mph /  8km/h 10mph /  16.1km/h 53% 0.00in /  0mm 37 W/m2
17:50 66.1 °F /  18.9 °C 49 °F /  9.4 °C 30.21in /  1022.9hPa NNW 2mph /  3.2km/h 10mph /  16.1km/h 54% 0.00in /  0mm 20 W/m2
18:00 65.4 °F /  18.6 °C 48.3 °F /  9.1 °C 30.22in /  1023.2hPa NNW 5mph /  8km/h 9mph /  14.5km/h 54% 0.00in /  0mm 4 W/m2
18:10 64.6 °F /  18.1 °C 48 °F /  8.9 °C 30.22in /  1023.2hPa NNW 3mph /  4.8km/h 8mph /  12.9km/h 55% 0.00in /  0mm 0 W/m2
18:20 64 °F /  17.8 °C 48.4 °F /  9.1 °C 30.22in /  1023.2hPa NNW 3mph /  4.8km/h 8mph /  12.9km/h 57% 0.00in /  0mm 0 W/m2
18:30 63.3 °F /  17.4 °C 47.8 °F /  8.8 °C 30.22in /  1023.2hPa NNW 3mph /  4.8km/h 6mph /  9.7km/h 57% 0.00in /  0mm 0 W/m2
18:40 62.5 °F /  16.9 °C 47.6 °F /  8.7 °C 30.23in /  1023.6hPa NNW 2mph /  3.2km/h 7mph /  11.3km/h 58% 0.00in /  0mm 0 W/m2
18:50 62.1 °F /  16.7 °C 47.1 °F /  8.4 °C 30.23in /  1023.6hPa North 1mph /  1.6km/h 7mph /  11.3km/h 58% 0.00in /  0mm 0 W/m2
19:00 61.3 °F /  16.3 °C 46.9 °F /  8.3 °C 30.23in /  1023.6hPa SW 1mph /  1.6km/h 3mph /  4.8km/h 59% 0.00in /  0mm 0 W/m2
19:10 60.4 °F /  15.8 °C 46.4 °F /  8 °C 30.23in /  1023.6hPa Calm   2mph /  3.2km/h 60% 0.00in /  0mm 0 W/m2
19:20 59.4 °F /  15.2 °C 46.8 °F /  8.2 °C 30.23in /  1023.6hPa SSE 2mph /  3.2km/h 4mph /  6.4km/h 63% 0.00in /  0mm 0 W/m2
19:30 58.6 °F /  14.8 °C 46.4 °F /  8 °C 30.23in /  1023.6hPa South 1mph /  1.6km/h 2mph /  3.2km/h 64% 0.00in /  0mm 0 W/m2
19:40 57.7 °F /  14.3 °C 46.4 °F /  8 °C 30.23in /  1023.6hPa WSW 1mph /  1.6km/h 2mph /  3.2km/h 66% 0.00in /  0mm 0 W/m2
19:50 56.8 °F /  13.8 °C 46 °F /  7.8 °C 30.24in /  1023.9hPa WSW 1mph /  1.6km/h 2mph /  3.2km/h 67% 0.00in /  0mm 0 W/m2
20:00 56.1 °F /  13.4 °C 45.6 °F /  7.6 °C 30.24in /  1023.9hPa SW 1mph /  1.6km/h 2mph /  3.2km/h 68% 0.00in /  0mm 0 W/m2
20:10 55.4 °F /  13 °C 45.4 °F /  7.4 °C 30.24in /  1023.9hPa SW 1mph /  1.6km/h 2mph /  3.2km/h 69% 0.00in /  0mm 0 W/m2
20:20 54.6 °F /  12.6 °C 45 °F /  7.2 °C 30.25in /  1024.3hPa SW 1mph /  1.6km/h 3mph /  4.8km/h 70% 0.00in /  0mm 0 W/m2
20:30 53.9 °F /  12.2 °C 45.1 °F /  7.3 °C 30.25in /  1024.3hPa WSW 1mph /  1.6km/h 2mph /  3.2km/h 72% 0.00in /  0mm 0 W/m2
20:40 53.4 °F /  11.9 °C 44.6 °F /  7 °C 30.25in /  1024.3hPa SW 2mph /  3.2km/h 3mph /  4.8km/h 72% 0.00in /  0mm 0 W/m2
20:50 52.7 °F /  11.5 °C 44.3 °F /  6.8 °C 30.25in /  1024.3hPa SW 2mph /  3.2km/h 3mph /  4.8km/h 73% 0.00in /  0mm 0 W/m2
21:00 52.2 °F /  11.2 °C 44.1 °F /  6.7 °C 30.25in /  1024.3hPa West 1mph /  1.6km/h 3mph /  4.8km/h 74% 0.00in /  0mm 0 W/m2
21:10 51.6 °F /  10.9 °C 43.6 °F /  6.4 °C 30.25in /  1024.3hPa WSW 1mph /  1.6km/h 2mph /  3.2km/h 74% 0.00in /  0mm 0 W/m2
21:20 51.3 °F /  10.7 °C 43.6 °F /  6.4 °C 30.25in /  1024.3hPa WSW 1mph /  1.6km/h 2mph /  3.2km/h 75% 0.00in /  0mm 0 W/m2
21:30 50.7 °F /  10.4 °C 43.1 °F /  6.2 °C 30.26in /  1024.6hPa West 1mph /  1.6km/h 2mph /  3.2km/h 75% 0.00in /  0mm 0 W/m2
21:40 50.4 °F /  10.2 °C 43.4 °F /  6.3 °C 30.26in /  1024.6hPa SSW 1mph /  1.6km/h 3mph /  4.8km/h 77% 0.00in /  0mm 0 W/m2
21:50 49.8 °F /  9.9 °C 43.2 °F /  6.2 °C 30.26in /  1024.6hPa South 1mph /  1.6km/h 3mph /  4.8km/h 78% 0.00in /  0mm 0 W/m2
22:00 49.6 °F /  9.8 °C 43.3 °F /  6.3 °C 30.26in /  1024.6hPa West 1mph /  1.6km/h 3mph /  4.8km/h 79% 0.00in /  0mm 0 W/m2
22:10 49.1 °F /  9.5 °C 42.9 °F /  6.1 °C 30.27in /  1024.9hPa Calm   3mph /  4.8km/h 79% 0.00in /  0mm 0 W/m2
22:20 48.7 °F /  9.3 °C 42.8 °F /  6 °C 30.27in /  1024.9hPa Calm   2mph /  3.2km/h 80% 0.00in /  0mm 0 W/m2
22:30 48.4 °F /  9.1 °C 42.5 °F /  5.8 °C 30.27in /  1024.9hPa Calm   2mph /  3.2km/h 80% 0.00in /  0mm 0 W/m2
22:40 48 °F /  8.9 °C 42.5 °F /  5.8 °C 30.27in /  1024.9hPa SW 1mph /  1.6km/h 2mph /  3.2km/h 81% 0.00in /  0mm 0 W/m2
22:50 47.7 °F /  8.7 °C 42.1 °F /  5.6 °C 30.27in /  1024.9hPa West 1mph /  1.6km/h 2mph /  3.2km/h 81% 0.00in /  0mm 0 W/m2
23:00 47.3 °F /  8.5 °C 42.4 °F /  5.8 °C 30.27in /  1024.9hPa NNW 2mph /  3.2km/h 3mph /  4.8km/h 83% 0.00in /  0mm 0 W/m2
23:10 47.4 °F /  8.6 °C 42.5 °F /  5.8 °C 30.27in /  1024.9hPa ENE 3mph /  4.8km/h 5mph /  8km/h 83% 0.00in /  0mm 0 W/m2
23:20 46.9 °F /  8.3 °C 41.4 °F /  5.2 °C 30.28in /  1025.3hPa NE 1mph /  1.6km/h 4mph /  6.4km/h 81% 0.00in /  0mm 0 W/m2
23:30 46.6 °F /  8.1 °C 41.7 °F /  5.4 °C 30.28in /  1025.3hPa WNW 1mph /  1.6km/h 2mph /  3.2km/h 83% 0.00in /  0mm 0 W/m2
23:40 46.4 °F /  8 °C 41.8 °F /  5.4 °C 30.28in /  1025.3hPa Calm   2mph /  3.2km/h 84% 0.00in /  0mm 0 W/m2
23:50 46 °F /  7.8 °C 41.5 °F /  5.3 °C 30.28in /  1025.3hPa WSW 1mph /  1.6km/h 2mph /  3.2km/h 84% 0.00in /  0mm 0 W/m2
Knjazevac, Serbia
Compliments of Weather Underground - 2 mb